sensor_id;sensor_type;location;lat;lon;timestamp;P1;durP1;ratioP1;P2;durP2;ratioP2
61373;SDS011;47242;48.158;-1.586;2022-12-20T05:30:26;14.23;;;4.28;;
61373;SDS011;47242;48.158;-1.586;2022-12-20T05:32:52;14.45;;;4.35;;
61373;SDS011;47242;48.158;-1.586;2022-12-20T05:35:18;14.60;;;4.68;;
61373;SDS011;47242;48.158;-1.586;2022-12-20T05:37:47;6.88;;;3.58;;
61373;SDS011;47242;48.158;-1.586;2022-12-20T05:40:12;10.68;;;4.28;;
61373;SDS011;47242;48.158;-1.586;2022-12-20T05:42:38;11.52;;;4.75;;
61373;SDS011;47242;48.158;-1.586;2022-12-20T05:45:04;10.32;;;3.58;;
61373;SDS011;47242;48.158;-1.586;2022-12-20T05:47:30;10.50;;;4.60;;
61373;SDS011;47242;48.158;-1.586;2022-12-20T05:50:01;9.65;;;4.72;;
61373;SDS011;47242;48.158;-1.586;2022-12-20T05:52:28;13.65;;;4.35;;
61373;SDS011;47242;48.158;-1.586;2022-12-20T05:54:54;9.18;;;3.88;;
61373;SDS011;47242;48.158;-1.586;2022-12-20T05:57:20;11.43;;;4.30;;
61373;SDS011;47242;48.158;-1.586;2022-12-20T05:59:46;8.55;;;3.58;;
61373;SDS011;47242;48.158;-1.586;2022-12-20T06:02:12;10.20;;;3.55;;
61373;SDS011;47242;48.158;-1.586;2022-12-20T06:04:39;6.88;;;3.85;;
61373;SDS011;47242;48.158;-1.586;2022-12-20T06:07:05;11.07;;;4.10;;
61373;SDS011;47242;48.158;-1.586;2022-12-20T06:09:31;6.38;;;3.63;;
61373;SDS011;47242;48.158;-1.586;2022-12-20T06:11:57;16.25;;;3.65;;
61373;SDS011;47242;48.158;-1.586;2022-12-20T06:14:23;11.65;;;4.22;;
61373;SDS011;47242;48.158;-1.586;2022-12-20T06:16:49;12.25;;;5.10;;
61373;SDS011;47242;48.158;-1.586;2022-12-20T06:19:15;14.82;;;4.35;;
61373;SDS011;47242;48.158;-1.586;2022-12-20T06:21:40;10.10;;;4.22;;
61373;SDS011;47242;48.158;-1.586;2022-12-20T06:24:06;8.57;;;4.15;;
61373;SDS011;47242;48.158;-1.586;2022-12-20T06:26:32;8.77;;;3.90;;
61373;SDS011;47242;48.158;-1.586;2022-12-20T06:29:04;10.63;;;4.50;;
61373;SDS011;47242;48.158;-1.586;2022-12-20T06:31:33;9.63;;;3.78;;
61373;SDS011;47242;48.158;-1.586;2022-12-20T06:33:58;6.45;;;3.47;;
61373;SDS011;47242;48.158;-1.586;2022-12-20T06:36:24;7.68;;;4.22;;
61373;SDS011;47242;48.158;-1.586;2022-12-20T06:38:50;6.05;;;3.45;;
61373;SDS011;47242;48.158;-1.586;2022-12-20T06:41:16;9.35;;;3.97;;
61373;SDS011;47242;48.158;-1.586;2022-12-20T06:43:41;6.70;;;4.13;;
61373;SDS011;47242;48.158;-1.586;2022-12-20T06:46:07;12.00;;;4.13;;
61373;SDS011;47242;48.158;-1.586;2022-12-20T06:48:33;9.75;;;4.40;;
61373;SDS011;47242;48.158;-1.586;2022-12-20T06:50:58;13.43;;;4.13;;
61373;SDS011;47242;48.158;-1.586;2022-12-20T06:53:24;8.57;;;3.88;;
61373;SDS011;47242;48.158;-1.586;2022-12-20T06:55:50;8.50;;;4.53;;
61373;SDS011;47242;48.158;-1.586;2022-12-20T06:58:19;8.25;;;4.30;;
61373;SDS011;47242;48.158;-1.586;2022-12-20T07:00:45;7.80;;;4.10;;
61373;SDS011;47242;48.158;-1.586;2022-12-20T07:03:11;8.15;;;3.75;;
61373;SDS011;47242;48.158;-1.586;2022-12-20T07:05:37;7.90;;;4.00;;
61373;SDS011;47242;48.158;-1.586;2022-12-20T07:08:04;7.88;;;4.47;;
61373;SDS011;47242;48.158;-1.586;2022-12-20T07:10:32;7.20;;;3.53;;
61373;SDS011;47242;48.158;-1.586;2022-12-20T07:12:58;6.32;;;4.07;;
61373;SDS011;47242;48.158;-1.586;2022-12-20T07:15:24;8.45;;;4.50;;
61373;SDS011;47242;48.158;-1.586;2022-12-20T07:17:50;9.00;;;4.55;;
61373;SDS011;47242;48.158;-1.586;2022-12-20T07:20:16;11.27;;;5.00;;
61373;SDS011;47242;48.158;-1.586;2022-12-20T07:22:42;8.65;;;4.70;;
61373;SDS011;47242;48.158;-1.586;2022-12-20T07:25:08;9.57;;;4.10;;
61373;SDS011;47242;48.158;-1.586;2022-12-20T07:27:35;9.63;;;4.45;;
61373;SDS011;47242;48.158;-1.586;2022-12-20T07:30:01;12.02;;;5.13;;
61373;SDS011;47242;48.158;-1.586;2022-12-20T07:32:26;10.07;;;4.88;;
61373;SDS011;47242;48.158;-1.586;2022-12-20T07:34:52;9.75;;;4.50;;
61373;SDS011;47242;48.158;-1.586;2022-12-20T07:37:18;12.63;;;4.60;;
61373;SDS011;47242;48.158;-1.586;2022-12-20T07:39:43;10.27;;;4.53;;
61373;SDS011;47242;48.158;-1.586;2022-12-20T07:42:09;12.05;;;4.75;;
61373;SDS011;47242;48.158;-1.586;2022-12-20T07:44:35;7.68;;;4.57;;
61373;SDS011;47242;48.158;-1.586;2022-12-20T07:47:01;11.48;;;4.70;;
61373;SDS011;47242;48.158;-1.586;2022-12-20T07:49:27;6.93;;;3.95;;
61373;SDS011;47242;48.158;-1.586;2022-12-20T07:51:54;9.63;;;4.25;;
61373;SDS011;47242;48.158;-1.586;2022-12-20T07:57:16;6.35;;;4.25;;
61373;SDS011;47242;48.158;-1.586;2022-12-20T07:59:50;10.75;;;5.13;;
61373;SDS011;47242;48.158;-1.586;2022-12-20T08:02:21;13.40;;;5.78;;
61373;SDS011;47242;48.158;-1.586;2022-12-20T08:04:51;10.85;;;4.60;;
61373;SDS011;47242;48.158;-1.586;2022-12-20T08:07:18;8.07;;;4.20;;
61373;SDS011;47242;48.158;-1.586;2022-12-20T08:09:44;7.85;;;4.63;;
61373;SDS011;47242;48.158;-1.586;2022-12-20T08:12:11;10.40;;;5.10;;
61373;SDS011;47242;48.158;-1.586;2022-12-20T08:14:40;9.02;;;4.90;;
61373;SDS011;47242;48.158;-1.586;2022-12-20T08:17:09;11.15;;;5.40;;
61373;SDS011;47242;48.158;-1.586;2022-12-20T08:19:35;11.48;;;5.90;;
61373;SDS011;47242;48.158;-1.586;2022-12-20T08:22:02;13.90;;;5.65;;
61373;SDS011;47242;48.158;-1.586;2022-12-20T08:24:28;9.85;;;5.65;;
61373;SDS011;47242;48.158;-1.586;2022-12-20T08:26:54;12.27;;;5.63;;
61373;SDS011;47242;48.158;-1.586;2022-12-20T08:29:20;11.52;;;6.97;;
61373;SDS011;47242;48.158;-1.586;2022-12-20T08:31:46;9.00;;;5.75;;
61373;SDS011;47242;48.158;-1.586;2022-12-20T08:34:14;7.82;;;5.47;;
61373;SDS011;47242;48.158;-1.586;2022-12-20T08:36:40;12.65;;;5.75;;
61373;SDS011;47242;48.158;-1.586;2022-12-20T08:39:06;10.43;;;5.65;;
61373;SDS011;47242;48.158;-1.586;2022-12-20T08:41:32;13.80;;;6.57;;
61373;SDS011;47242;48.158;-1.586;2022-12-20T08:43:59;20.02;;;6.43;;
61373;SDS011;47242;48.158;-1.586;2022-12-20T08:46:24;13.27;;;6.00;;
61373;SDS011;47242;48.158;-1.586;2022-12-20T08:48:51;12.65;;;6.07;;
61373;SDS011;47242;48.158;-1.586;2022-12-20T08:51:19;12.57;;;5.78;;
61373;SDS011;47242;48.158;-1.586;2022-12-20T08:53:45;11.93;;;6.53;;
61373;SDS011;47242;48.158;-1.586;2022-12-20T08:56:12;13.60;;;6.68;;
61373;SDS011;47242;48.158;-1.586;2022-12-20T08:58:39;17.63;;;6.93;;
61373;SDS011;47242;48.158;-1.586;2022-12-20T09:01:07;13.80;;;6.60;;
61373;SDS011;47242;48.158;-1.586;2022-12-20T09:03:35;12.38;;;6.65;;
61373;SDS011;47242;48.158;-1.586;2022-12-20T09:06:06;16.27;;;6.90;;
61373;SDS011;47242;48.158;-1.586;2022-12-20T09:08:34;16.30;;;5.90;;
61373;SDS011;47242;48.158;-1.586;2022-12-20T09:11:04;17.17;;;7.25;;
61373;SDS011;47242;48.158;-1.586;2022-12-20T09:13:33;14.38;;;6.30;;
61373;SDS011;47242;48.158;-1.586;2022-12-20T09:16:00;16.80;;;6.95;;
61373;SDS011;47242;48.158;-1.586;2022-12-20T09:18:28;14.45;;;6.03;;
61373;SDS011;47242;48.158;-1.586;2022-12-20T09:20:54;16.05;;;7.05;;
61373;SDS011;47242;48.158;-1.586;2022-12-20T09:23:20;19.17;;;6.03;;
61373;SDS011;47242;48.158;-1.586;2022-12-20T09:25:45;16.98;;;7.03;;
61373;SDS011;47242;48.158;-1.586;2022-12-20T09:28:11;19.83;;;6.97;;
61373;SDS011;47242;48.158;-1.586;2022-12-20T09:30:37;17.15;;;6.63;;
61373;SDS011;47242;48.158;-1.586;2022-12-20T09:33:02;22.17;;;7.10;;
61373;SDS011;47242;48.158;-1.586;2022-12-20T09:35:28;21.00;;;6.35;;
61373;SDS011;47242;48.158;-1.586;2022-12-20T09:37:54;14.43;;;6.30;;
61373;SDS011;47242;48.158;-1.586;2022-12-20T09:40:20;14.52;;;6.15;;
61373;SDS011;47242;48.158;-1.586;2022-12-20T09:42:48;14.65;;;6.18;;
61373;SDS011;47242;48.158;-1.586;2022-12-20T09:45:18;19.75;;;6.88;;
61373;SDS011;47242;48.158;-1.586;2022-12-20T09:47:49;13.20;;;4.63;;
61373;SDS011;47242;48.158;-1.586;2022-12-20T09:50:16;15.98;;;6.28;;
61373;SDS011;47242;48.158;-1.586;2022-12-20T09:52:50;18.70;;;7.00;;
61373;SDS011;47242;48.158;-1.586;2022-12-20T09:55:30;16.75;;;6.82;;
61373;SDS011;47242;48.158;-1.586;2022-12-20T09:58:23;17.30;;;6.43;;
61373;SDS011;47242;48.158;-1.586;2022-12-20T10:01:24;15.57;;;6.15;;
61373;SDS011;47242;48.158;-1.586;2022-12-20T10:03:51;14.88;;;6.70;;
61373;SDS011;47242;48.158;-1.586;2022-12-20T10:06:26;16.45;;;6.57;;
61373;SDS011;47242;48.158;-1.586;2022-12-20T10:12:20;15.10;;;6.30;;
61373;SDS011;47242;48.158;-1.586;2022-12-20T10:17:32;22.48;;;7.85;;
61373;SDS011;47242;48.158;-1.586;2022-12-20T10:25:53;10.50;;;6.07;;
61373;SDS011;47242;48.158;-1.586;2022-12-20T10:28:22;9.95;;;5.40;;
61373;SDS011;47242;48.158;-1.586;2022-12-20T10:30:52;11.27;;;5.05;;
61373;SDS011;47242;48.158;-1.586;2022-12-20T10:33:22;9.90;;;4.25;;
61373;SDS011;47242;48.158;-1.586;2022-12-20T10:35:49;11.75;;;5.25;;
61373;SDS011;47242;48.158;-1.586;2022-12-20T10:38:15;11.93;;;5.43;;
61373;SDS011;47242;48.158;-1.586;2022-12-20T10:43:39;9.27;;;3.88;;
61373;SDS011;47242;48.158;-1.586;2022-12-20T10:46:08;11.18;;;4.70;;
61373;SDS011;47242;48.158;-1.586;2022-12-20T10:48:40;10.40;;;4.45;;
61373;SDS011;47242;48.158;-1.586;2022-12-20T10:56:23;11.45;;;4.95;;
61373;SDS011;47242;48.158;-1.586;2022-12-20T10:59:02;11.33;;;4.93;;
61373;SDS011;47242;48.158;-1.586;2022-12-20T11:01:41;14.27;;;5.10;;
61373;SDS011;47242;48.158;-1.586;2022-12-20T11:06:54;11.73;;;4.88;;
61373;SDS011;47242;48.158;-1.586;2022-12-20T11:14:39;9.85;;;5.88;;
61373;SDS011;47242;48.158;-1.586;2022-12-20T11:17:27;17.02;;;6.00;;
61373;SDS011;47242;48.158;-1.586;2022-12-20T11:20:27;10.55;;;5.97;;
61373;SDS011;47242;48.158;-1.586;2022-12-20T11:31:50;10.13;;;6.13;;
61373;SDS011;47242;48.158;-1.586;2022-12-20T11:45:24;11.50;;;6.55;;
61373;SDS011;47242;48.158;-1.586;2022-12-20T11:51:22;16.48;;;6.70;;
61373;SDS011;47242;48.158;-1.586;2022-12-20T11:59:16;13.50;;;6.18;;
61373;SDS011;47242;48.158;-1.586;2022-12-20T12:01:48;15.07;;;6.05;;
61373;SDS011;47242;48.158;-1.586;2022-12-20T12:04:24;12.52;;;5.80;;
61373;SDS011;47242;48.158;-1.586;2022-12-20T12:06:58;11.60;;;5.88;;
61373;SDS011;47242;48.158;-1.586;2022-12-20T12:12:26;9.45;;;5.32;;
61373;SDS011;47242;48.158;-1.586;2022-12-20T12:18:05;15.20;;;6.00;;
61373;SDS011;47242;48.158;-1.586;2022-12-20T12:26:24;13.65;;;7.10;;
61373;SDS011;47242;48.158;-1.586;2022-12-20T12:28:55;10.05;;;6.75;;
61373;SDS011;47242;48.158;-1.586;2022-12-20T12:31:33;7.93;;;5.60;;
61373;SDS011;47242;48.158;-1.586;2022-12-20T12:34:26;7.80;;;5.63;;
61373;SDS011;47242;48.158;-1.586;2022-12-20T12:44:56;15.38;;;5.60;;
61373;SDS011;47242;48.158;-1.586;2022-12-20T12:47:35;10.60;;;5.97;;
61373;SDS011;47242;48.158;-1.586;2022-12-20T12:50:06;6.47;;;4.85;;
61373;SDS011;47242;48.158;-1.586;2022-12-20T12:52:50;8.25;;;4.78;;
61373;SDS011;47242;48.158;-1.586;2022-12-20T13:03:37;5.03;;;3.30;;
61373;SDS011;47242;48.158;-1.586;2022-12-20T13:11:32;7.80;;;4.85;;
61373;SDS011;47242;48.158;-1.586;2022-12-20T13:16:46;20.70;;;10.50;;
61373;SDS011;47242;48.158;-1.586;2022-12-20T13:19:34;14.18;;;7.43;;
61373;SDS011;47242;48.158;-1.586;2022-12-20T13:24:51;15.48;;;7.30;;
61373;SDS011;47242;48.158;-1.586;2022-12-20T13:29:51;9.52;;;5.90;;
61373;SDS011;47242;48.158;-1.586;2022-12-20T13:37:51;11.38;;;6.80;;
61373;SDS011;47242;48.158;-1.586;2022-12-20T13:45:49;4.10;;;3.22;;
61373;SDS011;47242;48.158;-1.586;2022-12-20T13:51:24;2.10;;;1.88;;
61373;SDS011;47242;48.158;-1.586;2022-12-20T13:53:58;4.05;;;2.40;;
61373;SDS011;47242;48.158;-1.586;2022-12-20T13:59:05;2.85;;;1.88;;
61373;SDS011;47242;48.158;-1.586;2022-12-20T14:01:45;5.00;;;1.67;;
61373;SDS011;47242;48.158;-1.586;2022-12-20T14:04:16;2.78;;;1.67;;
61373;SDS011;47242;48.158;-1.586;2022-12-20T14:06:43;2.45;;;1.92;;
61373;SDS011;47242;48.158;-1.586;2022-12-20T14:09:35;4.03;;;2.92;;
61373;SDS011;47242;48.158;-1.586;2022-12-20T14:12:05;2.80;;;1.77;;
61373;SDS011;47242;48.158;-1.586;2022-12-20T14:14:37;2.85;;;1.90;;
61373;SDS011;47242;48.158;-1.586;2022-12-20T14:17:16;2.20;;;1.75;;
61373;SDS011;47242;48.158;-1.586;2022-12-20T14:22:54;2.42;;;1.77;;
61373;SDS011;47242;48.158;-1.586;2022-12-20T14:25:42;2.40;;;1.65;;
61373;SDS011;47242;48.158;-1.586;2022-12-20T14:28:58;2.60;;;1.90;;
61373;SDS011;47242;48.158;-1.586;2022-12-20T14:31:37;6.90;;;1.80;;
61373;SDS011;47242;48.158;-1.586;2022-12-20T14:36:38;2.30;;;2.00;;
61373;SDS011;47242;48.158;-1.586;2022-12-20T14:39:23;3.03;;;2.42;;
61373;SDS011;47242;48.158;-1.586;2022-12-20T14:44:36;2.08;;;1.58;;
61373;SDS011;47242;48.158;-1.586;2022-12-20T14:47:10;2.00;;;1.42;;
61373;SDS011;47242;48.158;-1.586;2022-12-20T14:49:45;2.40;;;1.30;;
61373;SDS011;47242;48.158;-1.586;2022-12-20T14:52:14;1.88;;;1.08;;
61373;SDS011;47242;48.158;-1.586;2022-12-20T14:54:45;2.13;;;1.33;;
61373;SDS011;47242;48.158;-1.586;2022-12-20T14:57:22;2.97;;;1.50;;
61373;SDS011;47242;48.158;-1.586;2022-12-20T15:00:34;2.78;;;1.38;;
61373;SDS011;47242;48.158;-1.586;2022-12-20T15:02:50;2.17;;;1.10;;
61373;SDS011;47242;48.158;-1.586;2022-12-20T15:13:32;1.77;;;1.05;;
61373;SDS011;47242;48.158;-1.586;2022-12-20T15:16:00;1.77;;;1.13;;
61373;SDS011;47242;48.158;-1.586;2022-12-20T15:18:28;3.65;;;1.40;;
61373;SDS011;47242;48.158;-1.586;2022-12-20T15:20:58;2.92;;;1.30;;
61373;SDS011;47242;48.158;-1.586;2022-12-20T15:23:26;2.78;;;1.00;;
61373;SDS011;47242;48.158;-1.586;2022-12-20T15:25:52;2.20;;;1.60;;
61373;SDS011;47242;48.158;-1.586;2022-12-20T15:28:20;3.00;;;1.48;;
61373;SDS011;47242;48.158;-1.586;2022-12-20T15:30:48;2.83;;;2.07;;
61373;SDS011;47242;48.158;-1.586;2022-12-20T15:35:45;6.50;;;3.42;;
61373;SDS011;47242;48.158;-1.586;2022-12-20T15:38:12;5.32;;;3.33;;
61373;SDS011;47242;48.158;-1.586;2022-12-20T15:40:41;3.13;;;2.67;;
61373;SDS011;47242;48.158;-1.586;2022-12-20T15:43:12;2.80;;;2.22;;
61373;SDS011;47242;48.158;-1.586;2022-12-20T15:45:40;5.85;;;1.88;;
61373;SDS011;47242;48.158;-1.586;2022-12-20T15:48:12;2.03;;;1.42;;
61373;SDS011;47242;48.158;-1.586;2022-12-20T15:50:38;3.50;;;1.40;;
61373;SDS011;47242;48.158;-1.586;2022-12-20T15:53:08;3.22;;;1.50;;
61373;SDS011;47242;48.158;-1.586;2022-12-20T15:55:39;1.70;;;1.30;;
61373;SDS011;47242;48.158;-1.586;2022-12-20T15:58:05;2.60;;;1.40;;
61373;SDS011;47242;48.158;-1.586;2022-12-20T16:00:33;2.83;;;1.55;;
61373;SDS011;47242;48.158;-1.586;2022-12-20T16:02:58;2.20;;;1.50;;
61373;SDS011;47242;48.158;-1.586;2022-12-20T16:05:25;6.60;;;1.80;;
61373;SDS011;47242;48.158;-1.586;2022-12-20T16:07:51;3.25;;;1.42;;
61373;SDS011;47242;48.158;-1.586;2022-12-20T16:10:16;4.97;;;2.20;;
61373;SDS011;47242;48.158;-1.586;2022-12-20T16:12:42;2.60;;;1.48;;
61373;SDS011;47242;48.158;-1.586;2022-12-20T16:15:20;6.50;;;1.65;;
61373;SDS011;47242;48.158;-1.586;2022-12-20T16:17:46;4.32;;;2.67;;
61373;SDS011;47242;48.158;-1.586;2022-12-20T16:20:12;5.63;;;2.80;;
61373;SDS011;47242;48.158;-1.586;2022-12-20T16:22:38;7.07;;;2.80;;
61373;SDS011;47242;48.158;-1.586;2022-12-20T16:25:04;7.45;;;3.70;;
61373;SDS011;47242;48.158;-1.586;2022-12-20T16:27:30;5.82;;;2.70;;
61373;SDS011;47242;48.158;-1.586;2022-12-20T16:30:08;3.38;;;2.17;;
61373;SDS011;47242;48.158;-1.586;2022-12-20T16:32:35;8.32;;;3.80;;
61373;SDS011;47242;48.158;-1.586;2022-12-20T16:35:00;10.25;;;5.55;;
61373;SDS011;47242;48.158;-1.586;2022-12-20T16:37:26;15.13;;;6.03;;
61373;SDS011;47242;48.158;-1.586;2022-12-20T16:39:51;14.20;;;6.72;;
61373;SDS011;47242;48.158;-1.586;2022-12-20T16:42:18;13.57;;;5.40;;
61373;SDS011;47242;48.158;-1.586;2022-12-20T16:44:53;4.38;;;3.47;;
61373;SDS011;47242;48.158;-1.586;2022-12-20T16:47:18;11.15;;;3.35;;
61373;SDS011;47242;48.158;-1.586;2022-12-20T16:49:44;6.15;;;2.70;;
61373;SDS011;47242;48.158;-1.586;2022-12-20T16:52:13;6.85;;;3.67;;
61373;SDS011;47242;48.158;-1.586;2022-12-20T16:54:41;9.82;;;4.97;;
61373;SDS011;47242;48.158;-1.586;2022-12-20T16:57:07;12.05;;;4.35;;
61373;SDS011;47242;48.158;-1.586;2022-12-20T16:59:34;13.00;;;4.13;;
61373;SDS011;47242;48.158;-1.586;2022-12-20T17:02:00;7.25;;;4.18;;
61373;SDS011;47242;48.158;-1.586;2022-12-20T17:04:37;37.30;;;17.30;;
61373;SDS011;47242;48.158;-1.586;2022-12-20T17:07:03;15.98;;;9.63;;
61373;SDS011;47242;48.158;-1.586;2022-12-20T17:09:28;16.52;;;8.88;;
61373;SDS011;47242;48.158;-1.586;2022-12-20T17:11:54;11.23;;;6.13;;
61373;SDS011;47242;48.158;-1.586;2022-12-20T17:14:19;20.27;;;12.07;;
61373;SDS011;47242;48.158;-1.586;2022-12-20T17:16:45;18.05;;;12.13;;
61373;SDS011;47242;48.158;-1.586;2022-12-20T17:19:11;17.08;;;11.23;;
61373;SDS011;47242;48.158;-1.586;2022-12-20T17:21:39;12.85;;;8.65;;
61373;SDS011;47242;48.158;-1.586;2022-12-20T17:24:12;11.77;;;7.00;;
61373;SDS011;47242;48.158;-1.586;2022-12-20T17:26:45;15.50;;;7.18;;
61373;SDS011;47242;48.158;-1.586;2022-12-20T17:29:10;17.40;;;10.15;;
61373;SDS011;47242;48.158;-1.586;2022-12-20T17:31:37;15.50;;;7.82;;
61373;SDS011;47242;48.158;-1.586;2022-12-20T17:34:15;10.52;;;6.70;;
61373;SDS011;47242;48.158;-1.586;2022-12-20T17:36:42;12.80;;;6.35;;
61373;SDS011;47242;48.158;-1.586;2022-12-20T17:39:09;17.38;;;8.27;;
61373;SDS011;47242;48.158;-1.586;2022-12-20T17:41:37;14.68;;;7.97;;
61373;SDS011;47242;48.158;-1.586;2022-12-20T17:46:44;12.05;;;7.43;;
61373;SDS011;47242;48.158;-1.586;2022-12-20T17:49:10;12.60;;;7.50;;
61373;SDS011;47242;48.158;-1.586;2022-12-20T17:51:36;14.35;;;7.90;;
61373;SDS011;47242;48.158;-1.586;2022-12-20T17:54:01;21.48;;;8.10;;
61373;SDS011;47242;48.158;-1.586;2022-12-20T17:56:28;20.40;;;8.30;;
61373;SDS011;47242;48.158;-1.586;2022-12-20T17:59:02;20.15;;;8.27;;
61373;SDS011;47242;48.158;-1.586;2022-12-20T18:01:36;14.23;;;7.80;;
61373;SDS011;47242;48.158;-1.586;2022-12-20T18:04:06;17.30;;;7.15;;
61373;SDS011;47242;48.158;-1.586;2022-12-20T18:06:37;10.88;;;7.53;;
61373;SDS011;47242;48.158;-1.586;2022-12-20T18:09:05;21.35;;;13.05;;
61373;SDS011;47242;48.158;-1.586;2022-12-20T18:11:35;24.17;;;12.68;;
61373;SDS011;47242;48.158;-1.586;2022-12-20T18:14:01;49.63;;;22.15;;
61373;SDS011;47242;48.158;-1.586;2022-12-20T18:16:28;28.75;;;15.05;;
61373;SDS011;47242;48.158;-1.586;2022-12-20T18:18:55;42.85;;;18.38;;
61373;SDS011;47242;48.158;-1.586;2022-12-20T18:21:22;47.90;;;21.65;;
61373;SDS011;47242;48.158;-1.586;2022-12-20T18:24:12;40.55;;;18.30;;
61373;SDS011;47242;48.158;-1.586;2022-12-20T18:26:39;30.02;;;14.73;;
61373;SDS011;47242;48.158;-1.586;2022-12-20T18:29:05;22.10;;;14.05;;
61373;SDS011;47242;48.158;-1.586;2022-12-20T18:31:31;25.52;;;14.85;;
61373;SDS011;47242;48.158;-1.586;2022-12-20T18:33:58;23.98;;;13.30;;
61373;SDS011;47242;48.158;-1.586;2022-12-20T18:36:26;21.38;;;11.88;;
61373;SDS011;47242;48.158;-1.586;2022-12-20T18:38:56;20.10;;;11.98;;
61373;SDS011;47242;48.158;-1.586;2022-12-20T18:41:34;14.05;;;8.77;;
61373;SDS011;47242;48.158;-1.586;2022-12-20T18:44:02;19.13;;;11.73;;
61373;SDS011;47242;48.158;-1.586;2022-12-20T18:46:31;35.42;;;19.60;;
61373;SDS011;47242;48.158;-1.586;2022-12-20T18:48:58;32.85;;;18.02;;
61373;SDS011;47242;48.158;-1.586;2022-12-20T18:51:25;28.73;;;19.25;;
61373;SDS011;47242;48.158;-1.586;2022-12-20T18:53:53;31.38;;;17.83;;
61373;SDS011;47242;48.158;-1.586;2022-12-20T18:56:30;35.63;;;19.00;;
61373;SDS011;47242;48.158;-1.586;2022-12-20T18:58:58;32.85;;;19.85;;
61373;SDS011;47242;48.158;-1.586;2022-12-20T19:01:33;33.28;;;18.13;;
61373;SDS011;47242;48.158;-1.586;2022-12-20T19:04:03;39.22;;;20.90;;
61373;SDS011;47242;48.158;-1.586;2022-12-20T19:06:30;26.25;;;16.08;;
61373;SDS011;47242;48.158;-1.586;2022-12-20T19:08:57;26.65;;;15.13;;
61373;SDS011;47242;48.158;-1.586;2022-12-20T19:11:24;23.80;;;15.00;;
61373;SDS011;47242;48.158;-1.586;2022-12-20T19:13:50;24.45;;;16.40;;
61373;SDS011;47242;48.158;-1.586;2022-12-20T19:16:17;31.58;;;18.40;;
61373;SDS011;47242;48.158;-1.586;2022-12-20T19:18:47;36.45;;;18.50;;
61373;SDS011;47242;48.158;-1.586;2022-12-20T19:21:14;32.30;;;18.10;;
61373;SDS011;47242;48.158;-1.586;2022-12-20T19:23:43;38.00;;;21.27;;
61373;SDS011;47242;48.158;-1.586;2022-12-20T19:26:11;48.83;;;25.63;;
61373;SDS011;47242;48.158;-1.586;2022-12-20T19:28:38;62.45;;;31.05;;
61373;SDS011;47242;48.158;-1.586;2022-12-20T19:31:18;53.92;;;28.85;;
61373;SDS011;47242;48.158;-1.586;2022-12-20T19:33:50;37.22;;;22.75;;
61373;SDS011;47242;48.158;-1.586;2022-12-20T19:36:22;50.47;;;23.10;;
61373;SDS011;47242;48.158;-1.586;2022-12-20T19:38:50;46.38;;;23.00;;
61373;SDS011;47242;48.158;-1.586;2022-12-20T19:41:20;40.20;;;21.55;;
61373;SDS011;47242;48.158;-1.586;2022-12-20T19:43:48;44.45;;;20.90;;
61373;SDS011;47242;48.158;-1.586;2022-12-20T19:46:15;36.10;;;19.00;;
61373;SDS011;47242;48.158;-1.586;2022-12-20T19:48:41;41.30;;;20.73;;
61373;SDS011;47242;48.158;-1.586;2022-12-20T19:51:09;28.50;;;17.13;;
61373;SDS011;47242;48.158;-1.586;2022-12-20T19:53:40;34.80;;;18.83;;
61373;SDS011;47242;48.158;-1.586;2022-12-20T19:56:08;33.00;;;18.35;;
61373;SDS011;47242;48.158;-1.586;2022-12-20T19:58:35;27.73;;;18.17;;
61373;SDS011;47242;48.158;-1.586;2022-12-20T20:01:02;30.88;;;17.10;;
61373;SDS011;47242;48.158;-1.586;2022-12-20T20:03:29;29.48;;;16.27;;
61373;SDS011;47242;48.158;-1.586;2022-12-20T20:05:56;23.10;;;15.38;;
61373;SDS011;47242;48.158;-1.586;2022-12-20T20:08:22;26.85;;;17.48;;
61373;SDS011;47242;48.158;-1.586;2022-12-20T20:10:51;24.58;;;15.30;;
61373;SDS011;47242;48.158;-1.586;2022-12-20T20:13:18;23.50;;;13.25;;
61373;SDS011;47242;48.158;-1.586;2022-12-20T20:15:53;31.88;;;18.23;;
61373;SDS011;47242;48.158;-1.586;2022-12-20T20:18:20;64.18;;;28.77;;
61373;SDS011;47242;48.158;-1.586;2022-12-20T20:20:46;107.10;;;48.70;;
61373;SDS011;47242;48.158;-1.586;2022-12-20T20:23:12;103.00;;;49.97;;
61373;SDS011;47242;48.158;-1.586;2022-12-20T20:25:57;60.05;;;30.80;;
61373;SDS011;47242;48.158;-1.586;2022-12-20T20:28:23;72.32;;;31.77;;
61373;SDS011;47242;48.158;-1.586;2022-12-20T20:30:50;76.05;;;32.33;;
61373;SDS011;47242;48.158;-1.586;2022-12-20T20:33:16;53.08;;;25.50;;
61373;SDS011;47242;48.158;-1.586;2022-12-20T20:35:42;58.17;;;23.17;;
61373;SDS011;47242;48.158;-1.586;2022-12-20T20:38:08;43.38;;;19.63;;
61373;SDS011;47242;48.158;-1.586;2022-12-20T20:40:35;46.25;;;16.05;;
61373;SDS011;47242;48.158;-1.586;2022-12-20T20:43:03;33.83;;;14.38;;
61373;SDS011;47242;48.158;-1.586;2022-12-20T20:45:28;42.15;;;16.35;;
61373;SDS011;47242;48.158;-1.586;2022-12-20T20:47:54;39.80;;;15.60;;
61373;SDS011;47242;48.158;-1.586;2022-12-20T20:50:20;42.03;;;16.70;;
61373;SDS011;47242;48.158;-1.586;2022-12-20T20:52:46;49.47;;;18.60;;
61373;SDS011;47242;48.158;-1.586;2022-12-20T20:55:12;53.78;;;20.42;;
61373;SDS011;47242;48.158;-1.586;2022-12-20T20:57:38;55.40;;;20.98;;
61373;SDS011;47242;48.158;-1.586;2022-12-20T21:00:04;53.20;;;19.77;;
61373;SDS011;47242;48.158;-1.586;2022-12-20T21:02:30;58.63;;;21.00;;
61373;SDS011;47242;48.158;-1.586;2022-12-20T21:04:56;50.00;;;20.27;;
61373;SDS011;47242;48.158;-1.586;2022-12-20T21:07:21;75.68;;;21.45;;
61373;SDS011;47242;48.158;-1.586;2022-12-20T21:09:47;64.13;;;19.00;;
61373;SDS011;47242;48.158;-1.586;2022-12-20T21:12:13;53.10;;;19.20;;
61373;SDS011;47242;48.158;-1.586;2022-12-20T21:14:39;54.35;;;19.50;;
61373;SDS011;47242;48.158;-1.586;2022-12-20T21:17:05;52.60;;;17.95;;
61373;SDS011;47242;48.158;-1.586;2022-12-20T21:19:31;55.53;;;17.52;;
61373;SDS011;47242;48.158;-1.586;2022-12-20T21:21:56;43.85;;;17.48;;
61373;SDS011;47242;48.158;-1.586;2022-12-20T21:24:22;44.88;;;16.15;;
61373;SDS011;47242;48.158;-1.586;2022-12-20T21:26:47;43.70;;;16.15;;
61373;SDS011;47242;48.158;-1.586;2022-12-20T21:29:15;47.60;;;16.23;;
61373;SDS011;47242;48.158;-1.586;2022-12-20T21:31:41;35.90;;;15.45;;
61373;SDS011;47242;48.158;-1.586;2022-12-20T21:34:06;32.85;;;14.13;;
61373;SDS011;47242;48.158;-1.586;2022-12-20T21:36:32;46.70;;;16.10;;
61373;SDS011;47242;48.158;-1.586;2022-12-20T21:38:58;31.70;;;13.02;;
61373;SDS011;47242;48.158;-1.586;2022-12-20T21:41:25;32.83;;;12.88;;
61373;SDS011;47242;48.158;-1.586;2022-12-20T21:43:56;31.55;;;10.65;;
61373;SDS011;47242;48.158;-1.586;2022-12-20T21:46:23;34.22;;;12.00;;
61373;SDS011;47242;48.158;-1.586;2022-12-20T21:48:49;38.75;;;12.02;;
61373;SDS011;47242;48.158;-1.586;2022-12-20T21:51:16;31.15;;;11.73;;
61373;SDS011;47242;48.158;-1.586;2022-12-20T21:53:45;36.17;;;12.75;;
61373;SDS011;47242;48.158;-1.586;2022-12-20T21:56:12;39.70;;;12.65;;
61373;SDS011;47242;48.158;-1.586;2022-12-20T21:58:39;25.60;;;8.85;;
61373;SDS011;47242;48.158;-1.586;2022-12-20T22:01:06;28.50;;;10.43;;
61373;SDS011;47242;48.158;-1.586;2022-12-20T22:03:33;31.15;;;11.15;;
61373;SDS011;47242;48.158;-1.586;2022-12-20T22:05:59;36.30;;;11.65;;
61373;SDS011;47242;48.158;-1.586;2022-12-20T22:08:25;35.33;;;11.82;;
61373;SDS011;47242;48.158;-1.586;2022-12-20T22:10:59;35.15;;;10.48;;
61373;SDS011;47242;48.158;-1.586;2022-12-20T22:13:26;27.88;;;11.38;;
61373;SDS011;47242;48.158;-1.586;2022-12-20T22:15:53;38.78;;;11.30;;
61373;SDS011;47242;48.158;-1.586;2022-12-20T22:18:19;25.58;;;11.50;;
61373;SDS011;47242;48.158;-1.586;2022-12-20T22:20:45;29.00;;;12.20;;